sensor_id;sensor_type;location;lat;lon;timestamp;temperature;humidity
30851;DHT22;17567;48.382;9.102;2022-12-07T13:13:32;7.30;99.90
30851;DHT22;17567;48.382;9.102;2022-12-07T13:28:51;6.70;99.90
30851;DHT22;17567;48.382;9.102;2022-12-07T13:38:58;6.40;99.90
30851;DHT22;17567;48.382;9.102;2022-12-07T13:44:14;6.20;99.90
30851;DHT22;17567;48.382;9.102;2022-12-07T13:54:19;5.80;99.90
30851;DHT22;17567;48.382;9.102;2022-12-07T13:59:22;5.50;99.90
30851;DHT22;17567;48.382;9.102;2022-12-07T14:09:29;5.40;99.90
30851;DHT22;17567;48.382;9.102;2022-12-07T14:14:31;5.20;99.90
30851;DHT22;17567;48.382;9.102;2022-12-07T14:20:02;4.90;99.90
30851;DHT22;17567;48.382;9.102;2022-12-07T14:25:16;4.80;99.90
30851;DHT22;17567;48.382;9.102;2022-12-07T14:30:18;4.60;99.90
30851;DHT22;17567;48.382;9.102;2022-12-07T14:35:19;4.40;99.90
30851;DHT22;17567;48.382;9.102;2022-12-07T14:40:26;4.20;99.90
30851;DHT22;17567;48.382;9.102;2022-12-07T14:45:27;4.10;99.90
30851;DHT22;17567;48.382;9.102;2022-12-07T14:50:29;4.10;99.90
30851;DHT22;17567;48.382;9.102;2022-12-07T14:55:31;4.10;99.90
30851;DHT22;17567;48.382;9.102;2022-12-07T15:00:32;4.10;99.90
30851;DHT22;17567;48.382;9.102;2022-12-07T15:05:35;4.00;99.90
30851;DHT22;17567;48.382;9.102;2022-12-07T15:10:36;3.90;99.90
30851;DHT22;17567;48.382;9.102;2022-12-07T15:15:39;3.80;99.90
30851;DHT22;17567;48.382;9.102;2022-12-07T15:20:39;3.80;99.90
30851;DHT22;17567;48.382;9.102;2022-12-07T15:25:47;3.70;99.90
30851;DHT22;17567;48.382;9.102;2022-12-07T15:30:48;3.60;99.90
30851;DHT22;17567;48.382;9.102;2022-12-07T15:35:48;3.50;99.90
30851;DHT22;17567;48.382;9.102;2022-12-07T15:40:51;3.50;99.90
30851;DHT22;17567;48.382;9.102;2022-12-07T15:45:51;3.50;99.90
30851;DHT22;17567;48.382;9.102;2022-12-07T15:50:52;3.50;99.90
30851;DHT22;17567;48.382;9.102;2022-12-07T15:55:53;3.40;99.90
30851;DHT22;17567;48.382;9.102;2022-12-07T16:00:53;3.40;99.90
30851;DHT22;17567;48.382;9.102;2022-12-07T16:05:54;3.40;99.90
30851;DHT22;17567;48.382;9.102;2022-12-07T16:10:55;3.30;99.90
30851;DHT22;17567;48.382;9.102;2022-12-07T16:15:56;3.30;99.90
30851;DHT22;17567;48.382;9.102;2022-12-07T16:20:56;3.30;99.90
30851;DHT22;17567;48.382;9.102;2022-12-07T16:26:23;3.30;99.90
30851;DHT22;17567;48.382;9.102;2022-12-07T16:31:26;3.30;99.90
30851;DHT22;17567;48.382;9.102;2022-12-07T16:36:27;3.10;99.90
30851;DHT22;17567;48.382;9.102;2022-12-07T16:41:28;3.10;99.90
30851;DHT22;17567;48.382;9.102;2022-12-07T16:46:28;3.10;99.90
30851;DHT22;17567;48.382;9.102;2022-12-07T16:51:30;3.00;99.90
30851;DHT22;17567;48.382;9.102;2022-12-07T16:56:31;3.00;99.90
30851;DHT22;17567;48.382;9.102;2022-12-07T17:01:31;2.90;99.90
30851;DHT22;17567;48.382;9.102;2022-12-07T17:06:32;3.00;99.90
30851;DHT22;17567;48.382;9.102;2022-12-07T17:11:33;2.90;99.90
30851;DHT22;17567;48.382;9.102;2022-12-07T17:16:34;3.10;99.90
30851;DHT22;17567;48.382;9.102;2022-12-07T17:21:36;3.10;99.90
30851;DHT22;17567;48.382;9.102;2022-12-07T17:26:37;3.00;99.90
30851;DHT22;17567;48.382;9.102;2022-12-07T17:31:39;2.90;99.90
30851;DHT22;17567;48.382;9.102;2022-12-07T17:36:41;2.80;99.90
30851;DHT22;17567;48.382;9.102;2022-12-07T17:41:43;2.70;99.90
30851;DHT22;17567;48.382;9.102;2022-12-07T17:47:03;2.70;99.90
30851;DHT22;17567;48.382;9.102;2022-12-07T17:52:03;2.80;99.90
30851;DHT22;17567;48.382;9.102;2022-12-07T17:57:23;2.60;99.90
30851;DHT22;17567;48.382;9.102;2022-12-07T18:02:23;2.50;99.90
30851;DHT22;17567;48.382;9.102;2022-12-07T18:07:24;2.30;99.90
30851;DHT22;17567;48.382;9.102;2022-12-07T18:12:25;2.30;99.90
30851;DHT22;17567;48.382;9.102;2022-12-07T18:17:26;2.20;99.90
30851;DHT22;17567;48.382;9.102;2022-12-07T18:22:26;2.10;99.90
30851;DHT22;17567;48.382;9.102;2022-12-07T18:27:27;2.10;99.90
30851;DHT22;17567;48.382;9.102;2022-12-07T18:32:28;2.00;99.90
30851;DHT22;17567;48.382;9.102;2022-12-07T18:37:30;2.10;99.90
30851;DHT22;17567;48.382;9.102;2022-12-07T18:42:33;2.00;99.90
30851;DHT22;17567;48.382;9.102;2022-12-07T18:47:33;2.00;99.90
30851;DHT22;17567;48.382;9.102;2022-12-07T18:52:34;2.00;99.90
30851;DHT22;17567;48.382;9.102;2022-12-07T18:57:35;2.00;99.90
30851;DHT22;17567;48.382;9.102;2022-12-07T19:02:35;2.00;99.90
30851;DHT22;17567;48.382;9.102;2022-12-07T19:07:38;1.90;99.90
30851;DHT22;17567;48.382;9.102;2022-12-07T19:12:39;1.90;99.90
30851;DHT22;17567;48.382;9.102;2022-12-07T19:17:40;1.90;99.90
30851;DHT22;17567;48.382;9.102;2022-12-07T19:22:41;1.90;99.90
30851;DHT22;17567;48.382;9.102;2022-12-07T19:27:42;1.80;99.90
30851;DHT22;17567;48.382;9.102;2022-12-07T19:32:43;1.80;99.90
30851;DHT22;17567;48.382;9.102;2022-12-07T19:37:44;1.60;99.90
30851;DHT22;17567;48.382;9.102;2022-12-07T19:42:45;1.60;99.90
30851;DHT22;17567;48.382;9.102;2022-12-07T19:47:46;1.60;99.90
30851;DHT22;17567;48.382;9.102;2022-12-07T19:52:47;1.60;99.90
30851;DHT22;17567;48.382;9.102;2022-12-07T19:57:47;1.60;99.90
30851;DHT22;17567;48.382;9.102;2022-12-07T20:02:50;1.50;99.90
30851;DHT22;17567;48.382;9.102;2022-12-07T20:07:51;1.50;99.90
30851;DHT22;17567;48.382;9.102;2022-12-07T20:12:52;1.40;99.90
30851;DHT22;17567;48.382;9.102;2022-12-07T20:18:11;1.40;99.90
30851;DHT22;17567;48.382;9.102;2022-12-07T20:23:12;1.40;99.90
30851;DHT22;17567;48.382;9.102;2022-12-07T20:28:13;1.30;99.90
30851;DHT22;17567;48.382;9.102;2022-12-07T20:33:14;1.30;99.90
30851;DHT22;17567;48.382;9.102;2022-12-07T20:38:15;1.30;99.90
30851;DHT22;17567;48.382;9.102;2022-12-07T20:43:15;1.20;99.90
30851;DHT22;17567;48.382;9.102;2022-12-07T20:48:16;1.20;99.90
30851;DHT22;17567;48.382;9.102;2022-12-07T20:53:17;1.20;99.90
30851;DHT22;17567;48.382;9.102;2022-12-07T20:58:18;1.20;99.90
30851;DHT22;17567;48.382;9.102;2022-12-07T21:03:19;1.20;99.90
30851;DHT22;17567;48.382;9.102;2022-12-07T21:08:20;1.10;99.90
30851;DHT22;17567;48.382;9.102;2022-12-07T21:13:21;1.10;99.90
30851;DHT22;17567;48.382;9.102;2022-12-07T21:18:22;1.10;99.90
30851;DHT22;17567;48.382;9.102;2022-12-07T21:23:23;1.00;99.90
30851;DHT22;17567;48.382;9.102;2022-12-07T21:28:24;1.00;99.90
30851;DHT22;17567;48.382;9.102;2022-12-07T21:33:25;1.00;99.90
30851;DHT22;17567;48.382;9.102;2022-12-07T21:38:25;1.00;99.90
30851;DHT22;17567;48.382;9.102;2022-12-07T21:43:26;1.00;99.90
30851;DHT22;17567;48.382;9.102;2022-12-07T21:48:27;1.00;99.90
30851;DHT22;17567;48.382;9.102;2022-12-07T21:53:28;0.90;99.90
30851;DHT22;17567;48.382;9.102;2022-12-07T21:58:29;0.90;99.90
30851;DHT22;17567;48.382;9.102;2022-12-07T22:03:31;0.90;99.90
30851;DHT22;17567;48.382;9.102;2022-12-07T22:08:32;1.00;99.90
30851;DHT22;17567;48.382;9.102;2022-12-07T22:13:33;1.10;99.90
30851;DHT22;17567;48.382;9.102;2022-12-07T22:18:52;1.10;99.90
30851;DHT22;17567;48.382;9.102;2022-12-07T22:23:53;1.10;99.90
30851;DHT22;17567;48.382;9.102;2022-12-07T22:28:54;1.00;99.90
30851;DHT22;17567;48.382;9.102;2022-12-07T22:33:55;0.90;99.90
30851;DHT22;17567;48.382;9.102;2022-12-07T22:38:56;0.90;99.90
30851;DHT22;17567;48.382;9.102;2022-12-07T22:43:58;0.90;99.90
30851;DHT22;17567;48.382;9.102;2022-12-07T22:49:00;0.80;99.90
30851;DHT22;17567;48.382;9.102;2022-12-07T22:54:02;0.80;99.90
30851;DHT22;17567;48.382;9.102;2022-12-07T22:59:04;0.80;99.90
30851;DHT22;17567;48.382;9.102;2022-12-07T23:04:08;0.80;99.90
30851;DHT22;17567;48.382;9.102;2022-12-07T23:09:10;0.80;99.90
30851;DHT22;17567;48.382;9.102;2022-12-07T23:14:15;0.80;99.90
30851;DHT22;17567;48.382;9.102;2022-12-07T23:19:17;0.80;99.90
30851;DHT22;17567;48.382;9.102;2022-12-07T23:24:18;0.80;99.90
30851;DHT22;17567;48.382;9.102;2022-12-07T23:29:19;0.80;99.90
30851;DHT22;17567;48.382;9.102;2022-12-07T23:34:20;0.70;99.90
30851;DHT22;17567;48.382;9.102;2022-12-07T23:39:21;0.70;99.90
30851;DHT22;17567;48.382;9.102;2022-12-07T23:44:23;0.80;99.90
30851;DHT22;17567;48.382;9.102;2022-12-07T23:49:23;0.70;99.90
30851;DHT22;17567;48.382;9.102;2022-12-07T23:54:24;0.80;99.90
30851;DHT22;17567;48.382;9.102;2022-12-07T23:59:25;0.80;99.90
